Harrison Township, Pennsylvania
Current Conditions -  °F | °C
As of 3:55 AM on Friday 24 Oct 2014 (Local Time) from KN38 Reporting Station
Broken Clouds Broken Clouds  
Wind Chill: 42°   Ceiling: 8000
Heat Index: 46°   Visibility: 10mi
Dew Point: 41°   Wind: 8mph
Humidity: 81%   Direction: 330°NNW
Pressure: 29.96"   Gusts: NA
Location:  41.9252°N, 77.5198°W
Report Text: KN38 240755Z AUTO 33007KT 10SM SCT021 SCT031 BKN080 08/05 A2996 RMK AO2
Loading
Personal Weather Stations






























Interactive Weather Map
Tropical Storm Tracking
New forecast layout! Learn more

10-Day Weather Forecast

Advertisements
Track Severe Weather on mobile